createdAt,value
2023-05-10T00:03:35.459Z,11.86
2023-05-10T00:08:37.127Z,11.89
2023-05-10T00:13:38.636Z,11.88
2023-05-10T00:18:41.219Z,11.90
2023-05-10T00:23:42.761Z,11.85
2023-05-10T00:28:44.309Z,11.85
2023-05-10T00:33:46.224Z,11.80
2023-05-10T00:38:47.692Z,11.82
2023-05-10T00:43:49.337Z,11.77
2023-05-10T00:48:51.082Z,11.74
2023-05-10T00:53:52.898Z,11.70
2023-05-10T00:58:54.423Z,11.71
2023-05-10T01:03:56.298Z,11.70
2023-05-10T01:08:57.831Z,11.70
2023-05-10T01:13:59.743Z,11.66
2023-05-10T01:19:01.651Z,11.63
2023-05-10T01:24:27.080Z,11.66
2023-05-10T01:30:21.821Z,11.69
2023-05-10T01:35:44.224Z,11.67
2023-05-10T01:40:57.648Z,11.69
2023-05-10T01:46:11.840Z,11.65
2023-05-10T01:51:20.694Z,11.68
2023-05-10T01:56:26.684Z,11.66
2023-05-10T02:01:28.774Z,11.64
2023-05-10T02:06:33.490Z,11.57
2023-05-10T02:11:35.622Z,11.55
2023-05-10T02:16:38.720Z,11.57
2023-05-10T02:21:41.374Z,11.58
2023-05-10T02:26:45.206Z,11.59
2023-05-10T02:31:47.604Z,11.61
2023-05-10T02:36:51.653Z,11.62
2023-05-10T02:41:54.563Z,11.61
2023-05-10T02:46:57.046Z,11.60
2023-05-10T02:52:02.518Z,11.59
2023-05-10T02:57:06.508Z,11.61
2023-05-10T03:02:08.488Z,11.60
2023-05-10T03:07:10.591Z,11.59
2023-05-10T03:12:19.188Z,11.59
2023-05-10T03:17:30.062Z,11.59
2023-05-10T03:22:54.339Z,11.62
2023-05-10T03:27:57.190Z,11.58
2023-05-10T03:32:58.793Z,11.55
2023-05-10T03:38:00.388Z,11.53
2023-05-10T03:43:01.925Z,11.55
2023-05-10T03:48:04.333Z,11.56
2023-05-10T03:53:06.143Z,11.51
2023-05-10T03:58:07.695Z,11.46
2023-05-10T04:03:09.432Z,11.43
2023-05-10T04:08:10.997Z,11.45
2023-05-10T04:13:12.511Z,11.43
2023-05-10T04:18:14.004Z,11.41
2023-05-10T04:23:17.498Z,11.41
2023-05-10T04:28:19.042Z,11.41
2023-05-10T04:33:20.579Z,11.36
2023-05-10T04:38:22.117Z,11.36
2023-05-10T04:43:23.624Z,11.32
2023-05-10T04:48:25.070Z,11.31
2023-05-10T04:53:26.731Z,11.31
2023-05-10T04:58:28.350Z,11.32
2023-05-10T05:03:29.918Z,11.32
2023-05-10T05:08:31.536Z,11.31
2023-05-10T05:13:33.175Z,11.32
2023-05-10T05:18:34.735Z,11.29
2023-05-10T05:23:36.263Z,11.29
2023-05-10T05:28:38.547Z,11.25
2023-05-10T05:33:40.017Z,11.29
2023-05-10T05:38:41.512Z,11.34
2023-05-10T05:43:43.042Z,11.35
2023-05-10T05:48:44.505Z,11.38
2023-05-10T05:53:46.268Z,11.38
2023-05-10T05:58:47.819Z,11.38
2023-05-10T06:03:50.950Z,11.36
2023-05-10T06:08:53.416Z,11.38
2023-05-10T06:13:54.956Z,11.41
2023-05-10T06:18:56.550Z,11.41
2023-05-10T06:23:58.297Z,11.48
2023-05-10T06:28:59.869Z,11.52
2023-05-10T06:34:01.586Z,11.56
2023-05-10T06:39:03.149Z,11.63
2023-05-10T06:44:04.978Z,11.68
2023-05-10T06:49:06.498Z,11.78
2023-05-10T06:54:08.037Z,11.83
2023-05-10T06:59:09.676Z,11.94
2023-05-10T07:04:11.424Z,12.06
2023-05-10T07:09:12.968Z,12.16
2023-05-10T07:14:14.469Z,12.20
2023-05-10T07:19:15.942Z,12.23
2023-05-10T07:24:17.495Z,12.33
2023-05-10T07:29:18.945Z,12.46
2023-05-10T07:34:20.438Z,12.59
2023-05-10T07:39:27.459Z,12.68
2023-05-10T07:44:29.696Z,12.75
2023-05-10T07:49:33.598Z,12.95
2023-05-10T07:54:35.461Z,13.05
2023-05-10T07:59:37.464Z,13.11
2023-05-10T08:04:39.038Z,13.23
2023-05-10T08:09:40.709Z,13.46
2023-05-10T08:14:42.297Z,13.72
2023-05-10T08:19:43.826Z,13.82
2023-05-10T08:24:45.294Z,13.92
2023-05-10T08:29:50.472Z,13.93
2023-05-10T08:34:52.340Z,13.93
2023-05-10T08:39:53.847Z,13.92
2023-05-10T08:44:56.318Z,13.89
2023-05-10T08:50:00.193Z,13.92
2023-05-10T08:55:01.963Z,13.96
2023-05-10T09:00:03.892Z,14.15
2023-05-10T09:05:06.440Z,14.24
2023-05-10T09:10:09.117Z,14.33
2023-05-10T09:15:11.533Z,14.34
2023-05-10T09:20:13.218Z,14.40
2023-05-10T09:25:17.017Z,14.44
2023-05-10T09:30:31.811Z,14.45
2023-05-10T09:35:34.408Z,14.47
2023-05-10T09:40:36.124Z,14.37
2023-05-10T09:45:39.092Z,14.28
2023-05-10T09:50:41.340Z,14.12
2023-05-10T09:55:47.539Z,14.12
2023-05-10T10:00:52.315Z,14.08
2023-05-10T10:05:54.309Z,14.13
2023-05-10T10:10:55.802Z,14.13
2023-05-10T10:15:57.378Z,14.17
2023-05-10T10:20:59.507Z,14.23
2023-05-10T10:26:01.515Z,14.33
2023-05-10T10:31:35.897Z,14.52
2023-05-10T10:36:46.704Z,14.80
2023-05-10T10:41:56.691Z,14.96
2023-05-10T10:47:19.632Z,15.20
2023-05-10T10:52:34.490Z,15.41
2023-05-10T10:57:42.101Z,15.72
2023-05-10T11:02:43.591Z,15.78
2023-05-10T11:07:59.677Z,15.55
2023-05-10T11:13:11.212Z,15.42
2023-05-10T11:18:19.993Z,15.46
2023-05-10T11:23:23.168Z,15.48
2023-05-10T11:28:24.984Z,15.50
2023-05-10T11:33:26.444Z,15.42
2023-05-10T11:38:27.916Z,15.55
2023-05-10T11:43:31.551Z,15.57
2023-05-10T11:48:33.328Z,15.61
2023-05-10T11:53:34.987Z,15.62
2023-05-10T11:58:38.088Z,15.60
2023-05-10T12:03:40.905Z,15.52
2023-05-10T12:08:47.026Z,15.42
2023-05-10T12:13:48.942Z,15.31
2023-05-10T12:18:57.300Z,15.23
2023-05-10T12:24:06.322Z,15.14
2023-05-10T12:29:15.105Z,15.07
2023-05-10T12:34:26.957Z,15.03
2023-05-10T12:39:39.987Z,14.96
2023-05-10T12:44:41.517Z,15.07
2023-05-10T12:49:43.096Z,15.12
2023-05-10T12:54:44.549Z,15.18
2023-05-10T12:59:46.079Z,15.25
2023-05-10T13:04:49.615Z,15.43
2023-05-10T13:09:52.424Z,15.65
2023-05-10T13:14:55.276Z,15.72
2023-05-10T13:19:56.773Z,15.74
2023-05-10T13:24:58.267Z,15.75
2023-05-10T13:30:00.370Z,15.65
2023-05-10T13:35:02.142Z,15.38
2023-05-10T13:40:05.429Z,15.29
2023-05-10T13:45:07.309Z,15.26
2023-05-10T13:50:09.126Z,15.15
2023-05-10T13:55:13.279Z,15.12
2023-05-10T14:00:15.110Z,15.20
2023-05-10T14:05:17.126Z,15.20
2023-05-10T14:10:20.307Z,15.19
2023-05-10T14:15:22.016Z,15.11
2023-05-10T14:20:23.516Z,15.17
2023-05-10T14:25:25.425Z,15.19
2023-05-10T14:30:26.994Z,15.28
2023-05-10T14:35:29.014Z,15.32
2023-05-10T14:40:31.088Z,15.20
2023-05-10T14:45:32.663Z,14.93
2023-05-10T14:50:37.077Z,14.86
2023-05-10T14:55:39.914Z,14.73
2023-05-10T15:00:41.702Z,14.68
2023-05-10T15:05:43.711Z,14.65
2023-05-10T15:10:45.194Z,14.68
2023-05-10T15:15:46.760Z,14.62
2023-05-10T15:20:48.265Z,14.68
2023-05-10T15:25:51.244Z,14.71
2023-05-10T15:30:52.745Z,14.78
2023-05-10T15:35:54.660Z,14.83
2023-05-10T15:40:58.668Z,14.85
2023-05-10T15:46:00.395Z,14.88
2023-05-10T15:51:01.867Z,14.89
2023-05-10T15:56:04.107Z,14.90
2023-05-10T16:01:08.516Z,14.93
2023-05-10T16:06:10.009Z,14.89
2023-05-10T16:11:11.608Z,15.01
2023-05-10T16:16:13.243Z,14.99
2023-05-10T16:21:14.835Z,15.12
2023-05-10T16:26:16.919Z,15.25
2023-05-10T16:31:19.900Z,15.34
2023-05-10T16:36:21.558Z,15.34
2023-05-10T16:41:23.098Z,15.23
2023-05-10T16:46:24.745Z,15.15
2023-05-10T16:51:27.037Z,15.08
2023-05-10T16:56:28.517Z,14.94
2023-05-10T17:01:30.120Z,14.83
2023-05-10T17:06:31.661Z,14.70
2023-05-10T17:11:33.260Z,14.59
2023-05-10T17:16:35.819Z,14.58
2023-05-10T17:21:37.370Z,14.50
2023-05-10T17:26:38.859Z,14.42
2023-05-10T17:31:40.728Z,14.27
2023-05-10T17:36:42.656Z,14.05
2023-05-10T17:41:44.125Z,13.93
2023-05-10T17:46:45.643Z,13.85
2023-05-10T17:51:50.635Z,13.76
2023-05-10T17:56:52.740Z,13.67
2023-05-10T18:01:54.275Z,13.71
2023-05-10T18:07:01.302Z,13.71
2023-05-10T18:12:03.397Z,13.69
2023-05-10T18:17:07.120Z,13.67
2023-05-10T18:22:11.272Z,13.63
2023-05-10T18:27:13.018Z,13.63
2023-05-10T18:32:14.605Z,13.55
2023-05-10T18:37:16.462Z,13.49
2023-05-10T18:42:18.148Z,13.37
2023-05-10T18:47:19.803Z,13.35
2023-05-10T18:52:21.469Z,13.34
2023-05-10T18:57:23.977Z,13.25
2023-05-10T19:02:26.715Z,13.16
2023-05-10T19:07:29.492Z,13.05
2023-05-10T19:12:31.069Z,13.02
2023-05-10T19:17:32.646Z,12.91
2023-05-10T19:22:47.215Z,12.83
2023-05-10T19:27:58.770Z,12.72
2023-05-10T19:33:05.541Z,12.60
2023-05-10T19:38:07.346Z,12.54
2023-05-10T19:43:09.293Z,12.50
2023-05-10T19:48:10.971Z,12.42
2023-05-10T19:53:12.623Z,12.35
2023-05-10T19:58:14.090Z,12.29
2023-05-10T20:03:15.680Z,12.28
2023-05-10T20:08:17.247Z,12.26
2023-05-10T20:13:18.932Z,12.23
2023-05-10T20:18:20.428Z,12.26
2023-05-10T20:23:22.251Z,12.24
2023-05-10T20:28:25.372Z,12.22
2023-05-10T20:33:26.953Z,12.16
2023-05-10T20:38:30.313Z,12.09
2023-05-10T20:43:32.138Z,12.08
2023-05-10T20:48:34.126Z,12.06
2023-05-10T20:53:35.705Z,12.01
2023-05-10T20:58:37.237Z,12.00
2023-05-10T21:03:38.747Z,11.98
2023-05-10T21:08:40.373Z,11.94
2023-05-10T21:13:41.904Z,11.95
2023-05-10T21:18:43.459Z,11.94
2023-05-10T21:23:47.975Z,11.89
2023-05-10T21:28:49.492Z,11.85
2023-05-10T21:33:51.296Z,11.69
2023-05-10T21:38:52.837Z,11.70
2023-05-10T21:43:54.380Z,11.70
2023-05-10T21:48:55.861Z,11.68
2023-05-10T21:53:57.361Z,11.68
2023-05-10T21:58:58.908Z,11.61
2023-05-10T22:04:00.843Z,11.62
2023-05-10T22:09:02.377Z,11.58
2023-05-10T22:14:03.957Z,11.52
2023-05-10T22:19:05.604Z,11.51
2023-05-10T22:24:07.320Z,11.50
2023-05-10T22:29:08.803Z,11.43
2023-05-10T22:34:10.427Z,11.33
2023-05-10T22:39:12.184Z,11.37
2023-05-10T22:44:13.726Z,11.45
2023-05-10T22:49:15.210Z,11.52
2023-05-10T22:54:16.700Z,11.58
2023-05-10T22:59:18.169Z,11.61
2023-05-10T23:04:19.728Z,11.62
2023-05-10T23:09:21.337Z,11.61
2023-05-10T23:14:22.808Z,11.62
2023-05-10T23:19:24.656Z,11.62
2023-05-10T23:24:26.298Z,11.53
2023-05-10T23:29:27.912Z,11.54
2023-05-10T23:34:29.713Z,11.54
2023-05-10T23:39:31.310Z,11.57
2023-05-10T23:44:33.046Z,11.60
2023-05-10T23:49:34.602Z,11.60
2023-05-10T23:54:36.192Z,11.58
2023-05-10T23:59:37.878Z,11.56
